Time;durP1;ratioP1;P1;durP2;ratioP2;P2;SDS_P1;SDS_P2;PMS_P1;PMS_P2;Temp;Humidity;BMP_temperature;BMP_pressure;BME280_temperature;BME280_humidity;BME280_pressure;Samples;Min_cycle;Max_cycle;Signal;HPM_P1;HPM_P2
2023/02/06 00:01:45;;;;;;;44.93;21.10;;;-4.10;99.90;;;-4.28;72.78;102503.25;5072338;28;20198;-64
2023/02/06 00:04:14;;;;;;;41.40;20.33;;;-4.10;99.90;;;-4.30;72.37;102504.78;5075134;28;20198;-64
2023/02/06 00:06:43;;;;;;;40.47;20.53;;;-4.20;99.90;;;-4.34;73.01;102501.81;5071354;28;20212;-64
2023/02/06 00:09:12;;;;;;;40.13;21.33;;;-4.20;99.90;;;-4.34;72.81;102504.34;5070708;28;20251;-64
2023/02/06 00:11:40;;;;;;;42.67;20.60;;;-4.30;99.90;;;-4.36;72.80;102509.25;5072308;28;20197;-64
2023/02/06 00:14:09;;;;;;;36.30;20.83;;;-4.30;99.90;;;-4.40;73.04;102493.00;5066764;28;20182;-63
2023/02/06 00:16:37;;;;;;;41.90;22.40;;;-4.30;99.90;;;-4.39;73.24;102494.75;5071060;28;20178;-65
2023/02/06 00:19:07;;;;;;;40.33;20.13;;;-4.30;99.90;;;-4.39;73.44;102501.44;5069138;28;20213;-66
2023/02/06 00:21:38;;;;;;;35.97;20.03;;;-4.30;99.90;;;-4.35;73.87;102510.13;5070230;28;20217;-66
2023/02/06 00:24:07;;;;;;;38.90;21.30;;;-4.20;99.90;;;-4.34;73.99;102499.31;5071154;28;20194;-66
2023/02/06 00:26:35;;;;;;;42.23;21.77;;;-4.20;99.90;;;-4.29;73.57;102498.97;5065315;28;20212;-65
2023/02/06 00:29:04;;;;;;;41.77;23.07;;;-4.20;99.90;;;-4.23;73.92;102506.19;5074126;28;20293;-64
2023/02/06 00:31:32;;;;;;;45.03;22.13;;;-4.10;99.90;;;-4.21;73.70;102504.69;5063958;28;20224;-65
2023/02/06 00:34:02;;;;;;;41.13;21.60;;;-4.10;99.90;;;-4.19;73.42;102508.22;5063749;28;20234;-66
2023/02/06 00:36:33;;;;;;;45.00;24.60;;;-4.10;99.90;;;-4.18;73.47;102500.81;5065947;28;20210;-65
2023/02/06 00:39:01;;;;;;;41.03;21.43;;;-4.00;99.90;;;-4.16;73.27;102503.44;5072596;28;20213;-67
2023/02/06 00:41:30;;;;;;;40.23;21.90;;;-4.00;99.90;;;-4.16;73.53;102506.88;5069274;28;20203;-64
2023/02/06 00:43:58;;;;;;;43.40;23.17;;;-4.00;99.90;;;-4.13;73.18;102511.25;5070617;28;20213;-65
2023/02/06 00:46:26;;;;;;;46.57;23.40;;;-4.00;99.90;;;-4.15;72.98;102510.25;5071073;28;20236;-66
2023/02/06 00:48:55;;;;;;;42.93;23.00;;;-4.00;99.90;;;-4.14;72.95;102501.94;5068869;28;20203;-67
2023/02/06 00:51:23;;;;;;;43.93;22.63;;;-4.00;99.90;;;-4.13;73.45;102498.69;5067660;28;20213;-65
2023/02/06 00:53:53;;;;;;;43.50;22.93;;;-4.00;99.90;;;-4.10;73.31;102503.97;5072831;28;20198;-67
2023/02/06 00:56:21;;;;;;;43.97;22.20;;;-4.00;99.90;;;-4.09;73.32;102498.19;5073423;28;20217;-66
2023/02/06 00:58:50;;;;;;;44.17;21.37;;;-4.00;99.90;;;-4.10;72.82;102496.44;5071984;28;20283;-65
2023/02/06 01:01:18;;;;;;;46.23;22.97;;;-4.00;99.90;;;-4.09;73.24;102494.78;5071017;28;20213;-65
2023/02/06 01:03:47;;;;;;;41.30;22.07;;;-4.00;99.90;;;-4.05;73.54;102494.31;5068279;28;20286;-63
2023/02/06 01:06:15;;;;;;;41.57;20.73;;;-4.00;99.90;;;-4.05;73.53;102486.75;5074236;28;20206;-64
2023/02/06 01:08:44;;;;;;;40.73;21.30;;;-4.00;99.90;;;-4.08;73.32;102492.41;5072705;28;20202;-65
2023/02/06 01:11:17;;;;;;;44.70;21.83;;;-3.90;99.90;;;-4.05;73.28;102482.63;5072074;28;20202;-65
2023/02/06 01:13:47;;;;;;;40.00;22.03;;;-3.90;99.90;;;-4.03;73.11;102486.13;5063758;28;20190;-65
2023/02/06 01:16:18;;;;;;;42.87;23.13;;;-3.90;99.90;;;-4.01;73.13;102488.81;5066123;28;20202;-65
2023/02/06 01:18:47;;;;;;;40.97;21.67;;;-3.80;99.90;;;-4.02;73.04;102484.50;5062922;28;20214;-64
2023/02/06 01:21:19;;;;;;;46.37;21.90;;;-3.90;99.90;;;-4.03;72.81;102480.22;5068608;28;20216;-63
2023/02/06 01:23:49;;;;;;;42.23;21.93;;;-3.90;99.90;;;-4.06;73.27;102479.94;5069909;28;20186;-64
2023/02/06 01:26:23;;;;;;;44.03;22.07;;;-3.90;99.90;;;-4.06;73.23;102480.84;5071231;28;20212;-64
2023/02/06 01:28:51;;;;;;;49.10;22.23;;;-3.90;99.90;;;-4.10;72.90;102473.78;5068926;28;20241;-64
2023/02/06 01:31:22;;;;;;;43.53;23.20;;;-4.00;99.90;;;-4.12;73.65;102485.34;5073103;28;20233;-65
2023/02/06 01:33:52;;;;;;;45.10;22.73;;;-4.00;99.90;;;-4.13;73.25;102478.53;5064672;28;20206;-65
2023/02/06 01:36:22;;;;;;;44.50;22.87;;;-4.00;99.90;;;-4.17;73.02;102472.34;5072858;28;20205;-65
2023/02/06 01:38:51;;;;;;;45.87;22.73;;;-4.00;99.90;;;-4.18;73.30;102474.75;5072089;28;20324;-64
2023/02/06 01:41:23;;;;;;;44.67;22.60;;;-4.10;99.90;;;-4.20;73.18;102483.78;5072088;28;20206;-65
2023/02/06 01:44:10;;;;;;;41.33;22.47;;;-4.10;99.90;;;-4.26;73.59;102476.59;5069699;28;20237;-66
2023/02/06 01:46:40;;;;;;;44.83;22.73;;;-4.00;99.90;;;-4.26;73.00;102473.22;5075192;28;20194;-65
2023/02/06 01:49:16;;;;;;;42.43;22.23;;;-4.20;99.90;;;-4.28;73.62;102467.13;5070774;28;20186;-65
2023/02/06 01:51:46;;;;;;;42.77;23.40;;;-4.20;99.90;;;-4.31;73.32;102466.88;5069115;28;20198;-65
2023/02/06 01:54:15;;;;;;;44.73;23.97;;;-4.20;99.90;;;-4.31;73.52;102466.88;5070613;28;20263;-64
2023/02/06 01:56:51;;;;;;;46.80;24.33;;;-4.20;99.90;;;-4.35;73.27;102458.16;5074208;28;20653;-66
2023/02/06 01:59:21;;;;;;;45.43;23.73;;;-4.30;99.90;;;-4.34;73.91;102474.16;5071912;28;20214;-65
2023/02/06 02:01:49;;;;;;;44.80;24.70;;;-4.20;99.90;;;-4.38;73.81;102473.91;5055838;28;20206;-64
2023/02/06 02:04:21;;;;;;;42.10;23.33;;;-4.30;99.90;;;-4.39;73.83;102482.19;5053047;28;20205;-63
2023/02/06 02:07:03;;;;;;;47.17;25.50;;;-4.30;99.90;;;-4.40;73.96;102477.91;5048999;28;20201;-62
2023/02/06 02:09:33;;;;;;;48.17;25.23;;;-4.30;99.90;;;-4.38;74.00;102483.09;5050811;28;20214;-63
2023/02/06 02:12:03;;;;;;;56.90;27.73;;;-4.20;99.90;;;-4.36;74.23;102474.03;5053378;28;20206;-63
2023/02/06 02:14:32;;;;;;;53.77;25.60;;;-4.20;99.90;;;-4.33;74.10;102476.81;5051582;28;20619;-65
2023/02/06 02:17:19;;;;;;;52.60;25.27;;;-4.20;99.90;;;-4.34;73.93;102467.50;5053085;28;20206;-62
2023/02/06 02:20:35;;;;;;;48.27;24.87;;;-4.20;99.90;;;-4.35;74.22;102462.31;5052441;28;20217;-65
2023/02/06 02:23:20;;;;;;;45.63;24.60;;;-4.20;99.90;;;-4.42;73.82;102459.28;5044225;28;20724;-63
2023/02/06 02:26:37;;;;;;;48.13;25.93;;;-4.30;99.90;;;-4.42;73.68;102460.91;5046456;28;20247;-64
2023/02/06 02:29:59;;;;;;;49.13;23.50;;;-4.30;99.90;;;-4.48;74.12;102463.78;5052485;28;20729;-63
2023/02/06 02:33:02;;;;;;;52.10;26.07;;;-4.40;99.90;;;-4.54;74.50;102468.25;5049022;28;20244;-64
2023/02/06 02:35:49;;;;;;;48.23;26.23;;;-4.40;99.90;;;-4.54;74.00;102477.44;5048082;28;20244;-64
2023/02/06 02:38:33;;;;;;;50.73;24.93;;;-4.50;99.90;;;-4.56;73.97;102481.47;5051553;28;20260;-65
2023/02/06 02:41:10;;;;;;;55.07;27.03;;;-4.50;99.90;;;-4.61;74.72;102486.94;5052523;28;20261;-65
2023/02/06 02:43:44;;;;;;;49.33;26.03;;;-4.50;99.90;;;-4.66;74.39;102474.72;5047525;28;20241;-63
2023/02/06 02:46:26;;;;;;;51.00;26.53;;;-4.60;99.90;;;-4.66;74.59;102487.31;5051469;28;20615;-63
2023/02/06 02:49:00;;;;;;;47.77;25.27;;;-4.50;99.90;;;-4.69;74.74;102492.06;5052444;28;20202;-61
2023/02/06 02:51:30;;;;;;;51.63;24.70;;;-4.60;99.90;;;-4.69;74.94;102492.06;5050213;28;20204;-63
2023/02/06 02:53:58;;;;;;;50.90;26.07;;;-4.60;99.90;;;-4.70;75.18;102480.25;5052816;28;20249;-63
2023/02/06 02:56:30;;;;;;;49.13;25.93;;;-4.60;99.90;;;-4.68;75.15;102481.25;5050823;28;20206;-66
2023/02/06 02:59:04;;;;;;;48.77;25.53;;;-4.50;99.90;;;-4.66;74.85;102485.66;5051206;28;20666;-64
2023/02/06 03:01:37;;;;;;;49.40;25.23;;;-4.50;99.90;;;-4.63;75.03;102488.47;5050356;28;20257;-63
2023/02/06 03:04:13;;;;;;;50.90;26.90;;;-4.50;99.90;;;-4.64;75.37;102485.78;5053128;28;20202;-62
2023/02/06 03:07:04;;;;;;;58.63;26.73;;;-4.50;99.90;;;-4.59;75.44;102491.25;5050893;28;20210;-63
2023/02/06 03:09:58;;;;;;;49.60;26.43;;;-4.50;99.90;;;-4.57;74.87;102493.13;5049803;28;20264;-62
2023/02/06 03:12:38;;;;;;;53.73;26.80;;;-4.50;99.90;;;-4.56;75.51;102484.88;5050917;28;20194;-63
2023/02/06 03:15:20;;;;;;;48.53;26.43;;;-4.40;99.90;;;-4.55;74.93;102484.13;5050584;28;20202;-62
2023/02/06 03:17:55;;;;;;;49.10;24.17;;;-4.40;99.90;;;-4.54;75.00;102485.88;5052334;28;20256;-63
2023/02/06 03:20:25;;;;;;;52.10;26.70;;;-4.40;99.90;;;-4.57;74.87;102480.56;5051264;28;20271;-64
2023/02/06 03:22:57;;;;;;;52.03;24.83;;;-4.40;99.90;;;-4.53;75.05;102477.56;5050908;28;20206;-62
2023/02/06 03:25:33;;;;;;;54.70;27.20;;;-4.40;99.90;;;-4.56;74.57;102472.28;5046377;28;20197;-62
2023/02/06 03:28:05;;;;;;;52.57;26.03;;;-4.40;99.90;;;-4.56;75.01;102474.81;5051162;28;20240;-63
2023/02/06 03:30:34;;;;;;;55.17;27.37;;;-4.40;99.90;;;-4.59;75.12;102466.97;5047109;28;20237;-62
2023/02/06 03:33:07;;;;;;;48.17;26.57;;;-4.40;99.90;;;-4.55;74.73;102480.72;5049630;28;20313;-64
2023/02/06 03:35:39;;;;;;;53.67;28.17;;;-4.40;99.90;;;-4.60;74.95;102472.78;5052208;28;20260;-62
2023/02/06 03:38:09;;;;;;;49.87;26.13;;;-4.50;99.90;;;-4.60;74.83;102472.78;5049944;28;20252;-62
2023/02/06 03:40:42;;;;;;;53.50;27.47;;;-4.50;99.90;;;-4.61;74.93;102470.97;5045269;28;20217;-61
2023/02/06 03:43:17;;;;;;;51.67;27.87;;;-4.50;99.90;;;-4.62;74.65;102467.59;5050029;28;20202;-64
2023/02/06 03:45:51;;;;;;;52.00;27.47;;;-4.50;99.90;;;-4.66;74.87;102459.63;5052504;28;20208;-61
2023/02/06 03:48:26;;;;;;;57.17;27.10;;;-4.50;99.90;;;-4.65;74.72;102462.28;5043597;28;20218;-63
2023/02/06 03:50:59;;;;;;;52.00;26.77;;;-4.60;99.90;;;-4.68;74.79;102458.59;5049546;28;20201;-63
2023/02/06 03:53:29;;;;;;;55.40;27.47;;;-4.50;99.90;;;-4.65;74.46;102468.94;5051089;28;20236;-61
2023/02/06 03:56:06;;;;;;;57.67;27.87;;;-4.60;99.90;;;-4.67;74.79;102472.97;5050520;28;20213;-64
2023/02/06 03:58:34;;;;;;;50.63;27.40;;;-4.60;99.90;;;-4.70;74.63;102471.06;5039699;28;20650;-60
2023/02/06 04:01:04;;;;;;;54.27;28.27;;;-4.60;99.90;;;-4.70;74.68;102471.06;5050754;28;20303;-61
2023/02/06 04:03:33;;;;;;;52.53;25.90;;;-4.60;99.90;;;-4.74;74.77;102468.16;5051457;28;20213;-63
2023/02/06 04:06:01;;;;;;;54.80;28.13;;;-4.60;99.90;;;-4.78;74.68;102466.13;5050701;28;20275;-63
2023/02/06 04:08:31;;;;;;;60.93;28.97;;;-4.70;99.90;;;-4.84;74.53;102471.47;5049473;28;20218;-61
2023/02/06 04:10:59;;;;;;;60.30;28.70;;;-4.70;99.90;;;-4.87;74.75;102471.19;5052099;28;20201;-63
2023/02/06 04:13:28;;;;;;;60.00;30.00;;;-4.70;99.90;;;-4.88;75.05;102474.44;5047623;28;20248;-62
2023/02/06 04:15:56;;;;;;;57.80;29.13;;;-4.70;99.90;;;-4.91;74.92;102465.00;5047710;28;20206;-63
2023/02/06 04:18:24;;;;;;;55.40;28.13;;;-4.70;99.90;;;-4.90;74.98;102465.88;5050928;28;20287;-61
2023/02/06 04:20:53;;;;;;;61.67;30.13;;;-4.80;99.90;;;-4.92;75.24;102463.25;5049775;28;20257;-63
2023/02/06 04:23:22;;;;;;;53.10;27.67;;;-4.80;99.90;;;-4.92;75.36;102465.75;5049215;28;20237;-62
2023/02/06 04:25:51;;;;;;;60.03;30.27;;;-4.80;99.90;;;-4.94;75.29;102469.75;5051560;28;20202;-63
2023/02/06 04:28:20;;;;;;;60.20;28.47;;;-4.80;99.90;;;-4.91;75.23;102470.03;5050307;28;20257;-61
2023/02/06 04:30:48;;;;;;;57.30;28.27;;;-4.80;99.90;;;-4.92;75.71;102470.78;5047578;28;20714;-61
2023/02/06 04:33:17;;;;;;;55.50;28.10;;;-4.80;99.90;;;-4.91;75.39;102464.13;5041908;28;20206;-63
2023/02/06 04:35:47;;;;;;;62.97;29.10;;;-4.80;99.90;;;-4.90;75.47;102468.38;5050668;28;20213;-63
2023/02/06 04:38:15;;;;;;;54.43;27.63;;;-4.80;99.90;;;-4.91;75.59;102467.50;5048662;28;20224;-63
2023/02/06 04:40:44;;;;;;;58.97;28.03;;;-4.80;99.90;;;-4.91;75.31;102472.53;5050475;28;20616;-64
2023/02/06 04:43:14;;;;;;;61.50;29.33;;;-4.80;99.90;;;-4.95;75.62;102465.47;5050727;28;20202;-65
2023/02/06 04:45:42;;;;;;;55.30;27.73;;;-4.80;99.90;;;-4.93;75.44;102464.00;5050305;28;20246;-63
2023/02/06 04:48:10;;;;;;;57.80;28.80;;;-4.80;99.90;;;-4.92;75.68;102462.34;5044192;28;20242;-64
2023/02/06 04:50:39;;;;;;;60.83;27.60;;;-4.80;99.90;;;-4.91;75.76;102462.47;5039389;28;20206;-63
2023/02/06 04:53:07;;;;;;;55.60;27.73;;;-4.80;99.90;;;-4.92;75.52;102459.84;5049806;28;20240;-64
2023/02/06 04:55:35;;;;;;;54.67;26.80;;;-4.80;99.90;;;-4.93;75.43;102456.44;5051272;28;20206;-61
2023/02/06 04:58:04;;;;;;;55.90;28.20;;;-4.80;99.90;;;-4.93;75.69;102455.56;5044670;28;20280;-66
2023/02/06 05:00:34;;;;;;;55.47;28.20;;;-4.80;99.90;;;-4.94;75.46;102464.72;5049937;28;20229;-62
2023/02/06 05:03:05;;;;;;;59.93;28.90;;;-4.80;99.90;;;-4.93;75.74;102466.50;5050343;28;20202;-64
2023/02/06 05:05:34;;;;;;;56.50;28.70;;;-4.80;99.90;;;-4.93;75.42;102466.50;5043689;28;20228;-64
2023/02/06 05:08:02;;;;;;;63.00;29.33;;;-4.80;99.90;;;-4.94;75.25;102467.22;5050137;28;20214;-62
2023/02/06 05:10:31;;;;;;;52.93;26.97;;;-4.80;99.90;;;-4.97;75.44;102469.50;5048810;28;20257;-61
2023/02/06 05:13:00;;;;;;;61.17;27.80;;;-4.80;99.90;;;-4.98;75.44;102476.88;5049080;28;20210;-64
2023/02/06 05:15:29;;;;;;;54.40;26.47;;;-4.80;99.90;;;-4.98;75.52;102481.91;5051090;28;20214;-60
2023/02/06 05:17:58;;;;;;;57.13;26.87;;;-4.90;99.90;;;-5.02;75.56;102478.22;5050143;28;20584;-62
2023/02/06 05:20:27;;;;;;;59.80;25.90;;;-4.90;99.90;;;-5.09;75.28;102475.91;5053644;28;20297;-63
2023/02/06 05:22:56;;;;;;;52.77;24.47;;;-5.00;99.90;;;-5.12;75.41;102478.16;5044483;28;20317;-62
2023/02/06 05:25:24;;;;;;;46.93;23.10;;;-5.00;99.90;;;-5.14;75.73;102484.69;5047853;28;20678;-65
2023/02/06 05:27:56;;;;;;;54.03;25.37;;;-5.00;99.90;;;-5.18;75.82;102478.50;5052178;28;20241;-62
2023/02/06 05:30:25;;;;;;;55.27;24.33;;;-5.00;99.90;;;-5.17;76.24;102489.41;5051963;28;20253;-63
2023/02/06 05:32:53;;;;;;;60.07;27.03;;;-5.00;99.90;;;-5.16;76.34;102494.56;5048877;28;20233;-62
2023/02/06 05:35:24;;;;;;;57.60;24.33;;;-5.00;99.90;;;-5.21;76.21;102472.31;5052870;28;20240;-61
2023/02/06 05:37:52;;;;;;;51.97;25.10;;;-4.80;99.90;;;-5.20;76.14;102487.50;5051760;28;20249;-63
2023/02/06 05:40:21;;;;;;;49.97;24.57;;;-5.10;99.90;;;-5.22;75.98;102486.50;5053021;28;20507;-65
2023/02/06 05:42:50;;;;;;;51.33;24.50;;;-5.10;99.90;;;-5.29;75.84;102483.28;5051762;28;20283;-62
2023/02/06 05:45:18;;;;;;;60.07;25.67;;;-5.10;99.90;;;-5.29;75.87;102488.31;5052315;28;20336;-64
2023/02/06 05:47:47;;;;;;;56.40;25.37;;;-5.10;99.90;;;-5.29;76.20;102491.72;5053628;28;20202;-64
2023/02/06 05:50:15;;;;;;;56.27;25.50;;;-5.10;99.90;;;-5.28;76.08;102500.13;5050658;28;20213;-62
2023/02/06 05:52:45;;;;;;;60.77;26.70;;;-5.10;99.90;;;-5.36;76.15;102475.19;5051307;28;20602;-62
2023/02/06 05:55:15;;;;;;;56.43;26.10;;;-5.10;99.90;;;-5.29;76.03;102490.81;5047922;28;20628;-64
2023/02/06 05:57:44;;;;;;;66.77;28.70;;;-5.00;99.90;;;-5.31;76.52;102492.31;5044289;28;20206;-64
2023/02/06 06:00:14;;;;;;;57.90;26.77;;;-5.10;99.90;;;-5.34;75.63;102490.38;5051017;28;20669;-62
2023/02/06 06:02:42;;;;;;;68.17;26.83;;;-5.20;99.90;;;-5.38;76.12;102498.38;5051345;28;20637;-62
2023/02/06 06:05:11;;;;;;;68.27;29.03;;;-5.20;99.90;;;-5.43;75.83;102495.47;5050734;28;20256;-62
2023/02/06 06:07:39;;;;;;;69.30;30.30;;;-5.20;99.90;;;-5.43;76.27;102495.47;5053035;28;20237;-62
2023/02/06 06:10:09;;;;;;;68.37;32.97;;;-5.30;99.90;;;-5.45;76.39;102494.47;5052073;28;20260;-64
2023/02/06 06:12:38;;;;;;;80.43;36.60;;;-5.30;99.90;;;-5.46;76.50;102490.16;5052126;28;20238;-64
2023/02/06 06:15:08;;;;;;;82.80;39.60;;;-5.30;99.90;;;-5.53;76.52;102500.38;5047432;28;20242;-63
2023/02/06 06:17:36;;;;;;;85.17;41.57;;;-5.30;99.90;;;-5.61;76.63;102503.81;5046911;28;20279;-65
2023/02/06 06:20:06;;;;;;;92.20;43.27;;;-5.40;99.90;;;-5.64;76.99;102506.91;5050697;28;20252;-66
2023/02/06 06:22:34;;;;;;;102.27;45.10;;;-5.40;99.90;;;-5.66;76.77;102494.97;5048838;28;20360;-69
2023/02/06 06:25:03;;;;;;;95.87;46.67;;;-5.40;99.90;;;-5.65;76.63;102495.09;5052891;28;20260;-64
2023/02/06 06:27:35;;;;;;;90.67;44.87;;;-5.50;99.90;;;-5.62;76.76;102502.06;5051420;28;20264;-64
2023/02/06 06:30:04;;;;;;;106.93;44.13;;;-5.50;99.90;;;-5.62;76.85;102499.53;5051307;28;20288;-64
2023/02/06 06:32:33;;;;;;;86.40;43.20;;;-5.50;99.90;;;-5.63;76.84;102492.75;5050541;28;20206;-65
2023/02/06 06:35:01;;;;;;;96.23;44.37;;;-5.50;99.90;;;-5.60;77.08;102498.03;5046146;28;20237;-63
2023/02/06 06:37:30;;;;;;;84.20;36.23;;;-5.40;99.90;;;-5.57;77.06;102495.81;5047426;28;20654;-63
2023/02/06 06:39:58;;;;;;;81.40;38.60;;;-5.40;99.90;;;-5.53;77.23;102499.50;5054364;28;20206;-65
2023/02/06 06:42:27;;;;;;;73.83;34.57;;;-5.30;99.90;;;-5.51;76.76;102496.41;5049585;28;20284;-64
2023/02/06 06:44:57;;;;;;;70.30;31.27;;;-5.30;99.90;;;-5.51;76.60;102505.56;5050447;28;20213;-63
2023/02/06 06:47:25;;;;;;;67.37;30.83;;;-5.30;99.90;;;-5.47;76.52;102497.56;5049192;28;20668;-62
2023/02/06 06:49:54;;;;;;;61.07;28.00;;;-5.30;99.90;;;-5.43;76.70;102507.16;5047436;28;20331;-64
2023/02/06 06:52:22;;;;;;;55.23;27.67;;;-5.30;99.90;;;-5.41;76.22;102506.56;5046536;28;20296;-62
2023/02/06 06:54:53;;;;;;;63.80;27.70;;;-5.20;99.90;;;-5.41;75.84;102516.59;5047919;28;20206;-61
2023/02/06 06:57:22;;;;;;;58.90;25.63;;;-5.20;99.90;;;-5.39;76.69;102511.69;5046215;28;20236;-63
2023/02/06 06:59:51;;;;;;;55.63;26.17;;;-5.20;99.90;;;-5.35;76.12;102519.66;5050998;28;20617;-64
2023/02/06 07:02:21;;;;;;;53.07;24.77;;;-5.10;99.90;;;-5.30;75.85;102525.13;5049878;28;20229;-62
2023/02/06 07:04:49;;;;;;;51.33;23.83;;;-5.10;99.90;;;-5.23;75.69;102524.94;5048600;28;20237;-61
2023/02/06 07:07:17;;;;;;;50.43;23.30;;;-5.00;99.90;;;-5.12;75.55;102528.41;5044122;28;20289;-65
2023/02/06 07:09:46;;;;;;;51.00;23.83;;;-4.90;99.90;;;-5.05;75.50;102528.22;5050581;28;20210;-61
2023/02/06 07:12:15;;;;;;;50.70;24.10;;;-4.90;99.90;;;-5.04;74.84;102532.53;5052546;28;20256;-61
2023/02/06 07:14:43;;;;;;;53.63;26.17;;;-4.70;99.90;;;-4.89;74.89;102538.06;5044785;28;20214;-64
2023/02/06 07:17:11;;;;;;;54.33;24.77;;;-4.70;99.90;;;-4.81;74.31;102541.28;5052607;28;20202;-63
2023/02/06 07:19:41;;;;;;;52.63;24.90;;;-4.60;99.90;;;-4.71;73.48;102541.38;5048886;28;20205;-62
2023/02/06 07:22:10;;;;;;;46.73;24.20;;;-4.50;99.90;;;-4.62;73.60;102524.56;5048554;28;20226;-64
2023/02/06 07:24:38;;;;;;;50.00;22.93;;;-4.30;99.90;;;-4.49;73.37;102534.06;5040911;28;20209;-63
2023/02/06 07:27:07;;;;;;;53.23;23.53;;;-4.30;99.90;;;-4.45;73.07;102533.63;5050511;28;20684;-64
2023/02/06 07:29:37;;;;;;;46.17;22.03;;;-4.20;99.90;;;-4.42;72.43;102546.44;5050278;28;20241;-68
2023/02/06 07:32:06;;;;;;;48.87;23.00;;;-4.20;99.90;;;-4.42;72.43;102534.78;5045799;28;20210;-66
2023/02/06 07:34:36;;;;;;;45.97;22.83;;;-4.20;99.90;;;-4.36;72.89;102534.41;5051045;28;20201;-66
2023/02/06 07:37:06;;;;;;;42.37;21.10;;;-4.10;99.90;;;-4.25;72.53;102537.88;5043933;28;20206;-65
2023/02/06 07:39:35;;;;;;;39.03;20.80;;;-4.00;99.90;;;-4.11;73.19;102537.47;5051484;28;20595;-65
2023/02/06 07:42:04;;;;;;;39.87;20.50;;;-3.90;99.90;;;-4.03;72.48;102536.50;5052149;28;20651;-66
2023/02/06 07:44:32;;;;;;;45.97;20.90;;;-3.80;99.90;;;-3.96;72.27;102533.75;5049236;28;20623;-66
2023/02/06 07:47:01;;;;;;;47.07;20.93;;;-3.70;99.90;;;-3.89;72.50;102537.69;5048259;28;20263;-65
2023/02/06 07:49:29;;;;;;;40.83;19.87;;;-3.60;99.90;;;-3.81;72.52;102533.31;5047698;28;20251;-64
2023/02/06 07:51:57;;;;;;;47.03;21.40;;;-3.50;99.90;;;-3.73;71.99;102537.38;5046536;28;20717;-63
2023/02/06 07:54:27;;;;;;;47.57;20.33;;;-3.50;99.90;;;-3.73;71.71;102530.69;5050535;28;20214;-65
2023/02/06 07:56:56;;;;;;;45.77;20.17;;;-3.50;99.90;;;-3.70;71.91;102525.06;5048185;28;20717;-67
2023/02/06 07:59:25;;;;;;;39.90;19.77;;;-3.40;99.90;;;-3.70;71.52;102520.88;5044802;28;20207;-68
2023/02/06 08:01:53;;;;;;;43.63;20.60;;;-3.40;99.90;;;-3.64;71.99;102525.59;5042594;28;20271;-67
2023/02/06 08:04:22;;;;;;;49.00;24.42;;;-3.40;99.90;;;-3.58;71.92;102533.66;5050193;28;20456;-67
2023/02/06 08:06:50;;;;;;;42.43;21.60;;;-3.30;99.90;;;-3.53;71.15;102519.81;5048447;28;20202;-65
2023/02/06 08:09:19;;;;;;;46.50;20.73;;;-3.30;99.90;;;-3.45;71.66;102525.50;5047302;28;20213;-65
2023/02/06 08:11:48;;;;;;;52.75;28.85;;;-3.20;99.90;;;-3.47;71.39;102527.00;5047021;28;20451;-64
2023/02/06 08:14:17;;;;;;;53.97;24.53;;;-3.20;99.90;;;-3.38;71.49;102534.47;5050063;28;20572;-64
2023/02/06 08:16:45;;;;;;;50.13;22.47;;;-3.10;99.90;;;-3.23;71.48;102528.19;5049450;28;20198;-64
2023/02/06 08:19:14;;;;;;;46.10;21.77;;;-3.00;99.90;;;-3.06;71.65;102527.94;5044363;28;20225;-65
2023/02/06 08:21:42;;;;;;;48.90;22.23;;;-2.90;99.90;;;-2.82;71.03;102533.28;5045004;28;20201;-66
2023/02/06 08:24:13;;;;;;;51.83;22.33;;;-2.70;99.90;;;-2.60;71.04;102526.69;5051593;28;20249;-66
2023/02/06 08:26:42;;;;;;;42.67;21.50;;;-2.40;99.90;;;-2.38;70.50;102528.44;5047798;28;20341;-67
2023/02/06 08:29:14;;;;;;;43.83;20.60;;;-2.20;99.90;;;-2.16;69.83;102529.41;5051781;28;20861;-65
2023/02/06 08:31:43;;;;;;;40.37;19.87;;;-1.90;99.90;;;-1.88;69.56;102519.81;5051548;28;20264;-65
2023/02/06 08:34:14;;;;;;;45.90;20.63;;;-1.60;99.90;;;-1.52;68.79;102521.78;5051178;28;20660;-65
2023/02/06 08:36:42;;;;;;;39.10;20.43;;;-1.20;99.90;;;-1.09;68.27;102525.06;5046055;28;20678;-67
2023/02/06 08:39:14;;;;;;;44.27;20.57;;;-0.80;99.90;;;-0.65;67.26;102514.84;5037501;28;20232;-65
2023/02/06 08:41:43;;;;;;;41.60;21.53;;;-0.40;99.90;;;-0.26;66.21;102510.88;5040822;28;20346;-66
2023/02/06 08:44:16;;;;;;;46.97;22.10;;;-0.10;99.90;;;0.10;65.22;102512.63;5035057;28;20226;-64
2023/02/06 08:46:48;;;;;;;48.17;20.67;;;0.40;99.90;;;0.48;64.33;102507.72;5042234;28;20206;-66
2023/02/06 08:49:25;;;;;;;41.67;20.47;;;0.80;99.90;;;0.86;63.43;102511.09;5044065;28;20202;-65
2023/02/06 08:51:54;;;;;;;44.93;21.50;;;1.20;99.90;;;0.99;61.76;102502.63;5047090;28;20205;-65
2023/02/06 08:54:24;;;;;;;43.93;21.33;;;1.40;99.90;;;1.13;61.32;102501.88;5044095;28;20214;-63
2023/02/06 08:56:55;;;;;;;42.20;22.07;;;1.60;99.90;;;1.28;60.75;102507.97;5042432;28;20212;-66
2023/02/06 08:59:28;;;;;;;40.73;20.60;;;1.80;99.90;;;1.49;61.03;102505.09;5054533;28;20202;-69
2023/02/06 09:01:58;;;;;;;40.10;21.53;;;2.00;99.90;;;1.74;64.96;102503.34;5056988;28;20213;-69
2023/02/06 09:04:31;;;;;;;38.73;18.73;;;2.20;99.90;;;2.20;63.79;102501.13;5049939;28;20268;-68
2023/02/06 09:07:00;;;;;;;37.20;19.30;;;2.60;99.90;;;3.59;64.15;102491.53;5056140;28;20256;-67
2023/02/06 09:09:29;;;;;;;38.33;19.83;;;4.40;99.90;;;6.31;56.52;102495.97;5045543;28;20528;-68
2023/02/06 09:12:02;;;;;;;37.53;19.10;;;6.80;99.90;;;9.05;47.04;102494.03;5052064;28;20205;-69
2023/02/06 09:14:34;;;;;;;36.83;19.90;;;9.20;99.90;;;11.80;38.20;102484.66;5051678;28;20567;-66
2023/02/06 09:17:03;;;;;;;34.77;20.77;;;11.40;94.30;;;13.80;32.22;102484.09;5047333;28;20205;-65
2023/02/06 09:19:31;;;;;;;34.63;20.73;;;13.10;79.20;;;15.63;30.13;102480.84;5043160;28;20206;-65
2023/02/06 09:22:00;;;;;;;34.40;20.23;;;15.00;72.10;;;17.29;27.68;102486.63;5054391;28;20276;-65
2023/02/06 09:24:29;;;;;;;31.57;21.33;;;16.80;63.90;;;18.99;25.43;102475.56;5055001;28;20694;-68
2023/02/06 09:26:57;;;;;;;34.47;22.23;;;18.40;58.30;;;20.71;23.26;102483.31;5050581;28;20210;-64
2023/02/06 09:29:30;;;;;;;37.22;22.58;;;19.90;54.80;;;22.06;21.23;102478.34;5044571;28;20793;-66
2023/02/06 09:32:01;;;;;;;33.65;22.63;;;21.40;50.80;;;23.08;19.74;102467.28;5049746;28;20288;-65
2023/02/06 09:34:29;;;;;;;29.42;20.88;;;22.50;48.00;;;23.68;18.56;102460.47;5049264;28;20194;-69
2023/02/06 09:37:00;;;;;;;32.15;22.73;;;23.20;45.20;;;24.37;18.17;102468.97;5054466;28;20233;-69
2023/02/06 09:39:29;;;;;;;33.75;22.27;;;24.10;43.90;;;24.81;17.26;102467.59;5046741;28;20279;-68
2023/02/06 09:42:04;;;;;;;31.27;22.30;;;24.80;41.50;;;24.70;17.37;102467.09;5050503;28;20233;-69
2023/02/06 09:44:37;;;;;;;30.48;22.83;;;24.60;40.70;;;24.44;16.61;102465.28;5046501;28;20218;-66
2023/02/06 09:47:22;;;;;;;31.95;23.25;;;24.10;40.20;;;24.49;17.20;102468.66;5045534;28;20195;-66
2023/02/06 09:49:54;;;;;;;31.33;22.55;;;24.30;40.10;;;24.22;16.98;102472.06;5052811;28;20621;-69
2023/02/06 09:52:41;;;;;;;32.38;23.73;;;23.80;40.00;;;24.19;16.58;102470.41;5042729;28;20242;-70
2023/02/06 09:55:19;;;;;;;29.90;22.60;;;23.50;39.00;;;23.36;16.70;102469.22;5048984;28;20194;-63
2023/02/06 09:57:54;;;;;;;31.13;21.75;;;22.60;38.70;;;22.78;17.63;102468.84;5046974;28;20453;-65
2023/02/06 10:00:40;;;;;;;32.28;23.25;;;22.40;39.10;;;23.24;17.43;102469.53;5052200;28;20662;-66
2023/02/06 10:03:29;;;;;;;34.53;22.60;;;23.10;40.00;;;24.25;17.24;102466.72;5042273;28;20198;-66
2023/02/06 10:06:12;;;;;;;29.85;21.10;;;23.60;39.70;;;24.39;16.34;102469.84;5048456;28;20202;-65
2023/02/06 10:08:48;;;;;;;27.05;20.98;;;23.80;39.10;;;24.79;16.54;102464.16;5046939;28;20579;-66
2023/02/06 10:11:28;;;;;;;30.05;21.95;;;24.60;39.10;;;26.27;15.14;102455.38;5043173;28;20606;-67
2023/02/06 10:14:00;;;;;;;30.40;22.70;;;25.40;37.70;;;27.06;14.59;102450.44;5053605;28;20197;-66
2023/02/06 10:16:41;;;;;;;28.48;21.98;;;26.00;36.90;;;28.32;13.88;102447.47;5052290;28;20309;-74
2023/02/06 10:19:19;;;;;;;30.25;22.58;;;27.10;37.10;;;28.33;13.47;102447.38;5050930;28;20218;-63